sensor_id;sensor_type;location;lat;lon;timestamp;P1;durP1;ratioP1;P2;durP2;ratioP2
23140;SDS011;11739;54.750;9.124;2023-05-10T00:00:48;3.53;;;2.17;;
23140;SDS011;11739;54.750;9.124;2023-05-10T00:03:13;3.20;;;2.47;;
23140;SDS011;11739;54.750;9.124;2023-05-10T00:05:39;4.43;;;2.40;;
23140;SDS011;11739;54.750;9.124;2023-05-10T00:08:04;4.85;;;2.60;;
23140;SDS011;11739;54.750;9.124;2023-05-10T00:10:29;2.50;;;2.30;;
23140;SDS011;11739;54.750;9.124;2023-05-10T00:12:55;2.85;;;2.58;;
23140;SDS011;11739;54.750;9.124;2023-05-10T00:15:20;2.90;;;2.40;;
23140;SDS011;11739;54.750;9.124;2023-05-10T00:17:45;4.18;;;2.30;;
23140;SDS011;11739;54.750;9.124;2023-05-10T00:20:11;3.22;;;2.72;;
23140;SDS011;11739;54.750;9.124;2023-05-10T00:22:36;5.22;;;2.50;;
23140;SDS011;11739;54.750;9.124;2023-05-10T00:25:01;3.17;;;2.42;;
23140;SDS011;11739;54.750;9.124;2023-05-10T00:27:27;2.92;;;2.47;;
23140;SDS011;11739;54.750;9.124;2023-05-10T00:29:52;2.40;;;2.20;;
23140;SDS011;11739;54.750;9.124;2023-05-10T00:32:17;3.15;;;2.50;;
23140;SDS011;11739;54.750;9.124;2023-05-10T00:34:43;4.57;;;2.50;;
23140;SDS011;11739;54.750;9.124;2023-05-10T00:37:08;3.40;;;2.50;;
23140;SDS011;11739;54.750;9.124;2023-05-10T00:39:33;4.53;;;2.60;;
23140;SDS011;11739;54.750;9.124;2023-05-10T00:41:58;3.67;;;2.25;;
23140;SDS011;11739;54.750;9.124;2023-05-10T00:44:24;3.40;;;2.88;;
23140;SDS011;11739;54.750;9.124;2023-05-10T00:46:49;2.80;;;2.60;;
23140;SDS011;11739;54.750;9.124;2023-05-10T00:49:15;3.22;;;2.65;;
23140;SDS011;11739;54.750;9.124;2023-05-10T00:51:41;3.15;;;2.30;;
23140;SDS011;11739;54.750;9.124;2023-05-10T00:54:06;2.65;;;2.40;;
23140;SDS011;11739;54.750;9.124;2023-05-10T00:56:31;2.92;;;2.30;;
23140;SDS011;11739;54.750;9.124;2023-05-10T00:58:56;3.92;;;2.58;;
23140;SDS011;11739;54.750;9.124;2023-05-10T01:01:22;3.13;;;2.80;;
23140;SDS011;11739;54.750;9.124;2023-05-10T01:03:48;4.38;;;2.60;;
23140;SDS011;11739;54.750;9.124;2023-05-10T01:06:13;3.05;;;2.75;;
23140;SDS011;11739;54.750;9.124;2023-05-10T01:08:38;3.30;;;2.50;;
23140;SDS011;11739;54.750;9.124;2023-05-10T01:11:04;4.03;;;2.78;;
23140;SDS011;11739;54.750;9.124;2023-05-10T01:16:04;2.70;;;2.50;;
23140;SDS011;11739;54.750;9.124;2023-05-10T01:18:30;6.38;;;2.50;;
23140;SDS011;11739;54.750;9.124;2023-05-10T01:26:39;2.58;;;2.38;;
23140;SDS011;11739;54.750;9.124;2023-05-10T01:33:24;4.55;;;2.63;;
23140;SDS011;11739;54.750;9.124;2023-05-10T01:35:46;4.50;;;2.47;;
23140;SDS011;11739;54.750;9.124;2023-05-10T01:41:36;4.43;;;2.55;;
23140;SDS011;11739;54.750;9.124;2023-05-10T01:44:24;5.25;;;2.60;;
23140;SDS011;11739;54.750;9.124;2023-05-10T01:47:07;3.00;;;2.80;;
23140;SDS011;11739;54.750;9.124;2023-05-10T01:49:41;4.53;;;2.70;;
23140;SDS011;11739;54.750;9.124;2023-05-10T01:52:10;3.25;;;2.90;;
23140;SDS011;11739;54.750;9.124;2023-05-10T01:54:55;3.45;;;2.70;;
23140;SDS011;11739;54.750;9.124;2023-05-10T01:57:24;2.95;;;2.75;;
23140;SDS011;11739;54.750;9.124;2023-05-10T01:59:51;4.03;;;2.90;;
23140;SDS011;11739;54.750;9.124;2023-05-10T02:02:17;3.20;;;2.67;;
23140;SDS011;11739;54.750;9.124;2023-05-10T02:04:44;4.13;;;2.88;;
23140;SDS011;11739;54.750;9.124;2023-05-10T02:07:10;3.90;;;2.63;;
23140;SDS011;11739;54.750;9.124;2023-05-10T02:09:35;4.53;;;3.10;;
23140;SDS011;11739;54.750;9.124;2023-05-10T02:12:02;5.88;;;2.55;;
23140;SDS011;11739;54.750;9.124;2023-05-10T02:14:30;3.50;;;2.80;;
23140;SDS011;11739;54.750;9.124;2023-05-10T02:16:58;2.70;;;2.35;;
23140;SDS011;11739;54.750;9.124;2023-05-10T02:19:24;3.63;;;2.80;;
23140;SDS011;11739;54.750;9.124;2023-05-10T02:21:50;3.00;;;2.70;;
23140;SDS011;11739;54.750;9.124;2023-05-10T02:24:16;4.97;;;2.70;;
23140;SDS011;11739;54.750;9.124;2023-05-10T02:26:42;3.58;;;2.42;;
23140;SDS011;11739;54.750;9.124;2023-05-10T02:29:09;4.07;;;3.05;;
23140;SDS011;11739;54.750;9.124;2023-05-10T02:31:34;3.30;;;2.88;;
23140;SDS011;11739;54.750;9.124;2023-05-10T02:34:00;3.53;;;2.70;;
23140;SDS011;11739;54.750;9.124;2023-05-10T02:36:26;4.18;;;2.60;;
23140;SDS011;11739;54.750;9.124;2023-05-10T02:38:52;4.35;;;2.80;;
23140;SDS011;11739;54.750;9.124;2023-05-10T02:41:17;5.07;;;2.88;;
23140;SDS011;11739;54.750;9.124;2023-05-10T02:43:43;3.08;;;2.75;;
23140;SDS011;11739;54.750;9.124;2023-05-10T02:46:09;3.22;;;2.92;;
23140;SDS011;11739;54.750;9.124;2023-05-10T02:48:34;4.43;;;2.53;;
23140;SDS011;11739;54.750;9.124;2023-05-10T02:51:00;3.13;;;2.78;;
23140;SDS011;11739;54.750;9.124;2023-05-10T02:53:30;4.32;;;2.90;;
23140;SDS011;11739;54.750;9.124;2023-05-10T02:55:57;3.40;;;2.80;;
23140;SDS011;11739;54.750;9.124;2023-05-10T02:58:24;5.45;;;3.47;;
23140;SDS011;11739;54.750;9.124;2023-05-10T03:00:49;3.28;;;2.80;;
23140;SDS011;11739;54.750;9.124;2023-05-10T03:03:15;6.22;;;3.30;;
23140;SDS011;11739;54.750;9.124;2023-05-10T03:05:40;4.97;;;3.10;;
23140;SDS011;11739;54.750;9.124;2023-05-10T03:08:05;4.50;;;3.00;;
23140;SDS011;11739;54.750;9.124;2023-05-10T03:10:31;3.55;;;3.00;;
23140;SDS011;11739;54.750;9.124;2023-05-10T03:13:17;3.67;;;2.95;;
23140;SDS011;11739;54.750;9.124;2023-05-10T03:16:14;4.15;;;3.03;;
23140;SDS011;11739;54.750;9.124;2023-05-10T03:18:44;4.00;;;2.90;;
23140;SDS011;11739;54.750;9.124;2023-05-10T03:21:13;4.55;;;2.80;;
23140;SDS011;11739;54.750;9.124;2023-05-10T03:23:43;4.90;;;2.53;;
23140;SDS011;11739;54.750;9.124;2023-05-10T03:26:12;3.25;;;2.95;;
23140;SDS011;11739;54.750;9.124;2023-05-10T03:28:42;5.05;;;3.38;;
23140;SDS011;11739;54.750;9.124;2023-05-10T03:31:08;3.92;;;2.80;;
23140;SDS011;11739;54.750;9.124;2023-05-10T03:33:34;3.00;;;2.75;;
23140;SDS011;11739;54.750;9.124;2023-05-10T03:35:59;4.55;;;2.63;;
23140;SDS011;11739;54.750;9.124;2023-05-10T03:38:24;4.60;;;3.00;;
23140;SDS011;11739;54.750;9.124;2023-05-10T03:40:49;3.70;;;3.40;;
23140;SDS011;11739;54.750;9.124;2023-05-10T03:43:15;3.53;;;3.03;;
23140;SDS011;11739;54.750;9.124;2023-05-10T03:45:40;3.95;;;2.90;;
23140;SDS011;11739;54.750;9.124;2023-05-10T03:48:05;4.63;;;3.08;;
23140;SDS011;11739;54.750;9.124;2023-05-10T03:50:31;3.70;;;3.08;;
23140;SDS011;11739;54.750;9.124;2023-05-10T03:52:56;4.32;;;3.00;;
23140;SDS011;11739;54.750;9.124;2023-05-10T03:55:21;4.88;;;2.70;;
23140;SDS011;11739;54.750;9.124;2023-05-10T03:57:47;3.22;;;2.75;;
23140;SDS011;11739;54.750;9.124;2023-05-10T04:00:12;3.50;;;3.20;;
23140;SDS011;11739;54.750;9.124;2023-05-10T04:02:37;3.15;;;2.72;;
23140;SDS011;11739;54.750;9.124;2023-05-10T04:05:03;3.30;;;3.00;;
23140;SDS011;11739;54.750;9.124;2023-05-10T04:07:28;4.00;;;2.70;;
23140;SDS011;11739;54.750;9.124;2023-05-10T04:09:54;3.10;;;2.67;;
23140;SDS011;11739;54.750;9.124;2023-05-10T04:12:19;3.53;;;3.10;;
23140;SDS011;11739;54.750;9.124;2023-05-10T04:14:44;6.90;;;3.40;;
23140;SDS011;11739;54.750;9.124;2023-05-10T04:17:09;4.45;;;2.95;;
23140;SDS011;11739;54.750;9.124;2023-05-10T04:19:35;4.95;;;2.95;;
23140;SDS011;11739;54.750;9.124;2023-05-10T04:22:01;4.32;;;2.90;;
23140;SDS011;11739;54.750;9.124;2023-05-10T04:24:27;4.38;;;3.20;;
23140;SDS011;11739;54.750;9.124;2023-05-10T04:26:53;3.70;;;3.10;;
23140;SDS011;11739;54.750;9.124;2023-05-10T04:29:19;3.05;;;2.83;;
23140;SDS011;11739;54.750;9.124;2023-05-10T04:31:44;6.15;;;3.10;;
23140;SDS011;11739;54.750;9.124;2023-05-10T04:34:09;3.38;;;3.08;;
23140;SDS011;11739;54.750;9.124;2023-05-10T04:36:34;3.75;;;2.80;;
23140;SDS011;11739;54.750;9.124;2023-05-10T04:39:00;4.00;;;2.85;;
23140;SDS011;11739;54.750;9.124;2023-05-10T04:41:25;6.25;;;3.03;;
23140;SDS011;11739;54.750;9.124;2023-05-10T04:43:50;5.03;;;3.30;;
23140;SDS011;11739;54.750;9.124;2023-05-10T04:46:16;3.47;;;3.10;;
23140;SDS011;11739;54.750;9.124;2023-05-10T04:48:41;4.57;;;3.03;;
23140;SDS011;11739;54.750;9.124;2023-05-10T04:51:06;7.30;;;3.20;;
23140;SDS011;11739;54.750;9.124;2023-05-10T04:53:32;4.47;;;3.00;;
23140;SDS011;11739;54.750;9.124;2023-05-10T04:55:57;4.20;;;3.60;;
23140;SDS011;11739;54.750;9.124;2023-05-10T04:58:22;4.30;;;3.00;;
23140;SDS011;11739;54.750;9.124;2023-05-10T05:00:48;5.18;;;3.05;;
23140;SDS011;11739;54.750;9.124;2023-05-10T05:03:13;3.80;;;2.75;;
23140;SDS011;11739;54.750;9.124;2023-05-10T05:05:38;7.35;;;3.45;;
23140;SDS011;11739;54.750;9.124;2023-05-10T05:08:04;5.78;;;3.00;;
23140;SDS011;11739;54.750;9.124;2023-05-10T05:10:29;4.20;;;3.17;;
23140;SDS011;11739;54.750;9.124;2023-05-10T05:12:54;3.63;;;3.15;;
23140;SDS011;11739;54.750;9.124;2023-05-10T05:15:20;4.28;;;3.00;;
23140;SDS011;11739;54.750;9.124;2023-05-10T05:17:45;3.17;;;2.88;;
23140;SDS011;11739;54.750;9.124;2023-05-10T05:20:10;3.50;;;2.75;;
23140;SDS011;11739;54.750;9.124;2023-05-10T05:22:36;3.33;;;3.00;;
23140;SDS011;11739;54.750;9.124;2023-05-10T05:25:01;4.38;;;3.58;;
23140;SDS011;11739;54.750;9.124;2023-05-10T05:27:27;5.95;;;3.47;;
23140;SDS011;11739;54.750;9.124;2023-05-10T05:29:56;4.13;;;3.10;;
23140;SDS011;11739;54.750;9.124;2023-05-10T05:32:21;4.68;;;3.03;;
23140;SDS011;11739;54.750;9.124;2023-05-10T05:34:47;3.75;;;3.42;;
23140;SDS011;11739;54.750;9.124;2023-05-10T05:37:16;3.50;;;3.20;;
23140;SDS011;11739;54.750;9.124;2023-05-10T05:39:43;3.58;;;3.25;;
23140;SDS011;11739;54.750;9.124;2023-05-10T05:42:09;4.28;;;3.30;;
23140;SDS011;11739;54.750;9.124;2023-05-10T05:44:34;3.97;;;3.30;;
23140;SDS011;11739;54.750;9.124;2023-05-10T05:46:59;3.83;;;3.00;;
23140;SDS011;11739;54.750;9.124;2023-05-10T05:49:25;4.53;;;3.25;;
23140;SDS011;11739;54.750;9.124;2023-05-10T05:51:50;4.47;;;3.03;;
23140;SDS011;11739;54.750;9.124;2023-05-10T05:54:15;3.50;;;3.10;;
23140;SDS011;11739;54.750;9.124;2023-05-10T05:56:41;4.45;;;2.88;;
23140;SDS011;11739;54.750;9.124;2023-05-10T05:59:06;3.42;;;2.85;;
23140;SDS011;11739;54.750;9.124;2023-05-10T06:01:31;4.38;;;3.55;;
23140;SDS011;11739;54.750;9.124;2023-05-10T06:03:56;4.40;;;3.28;;
23140;SDS011;11739;54.750;9.124;2023-05-10T06:06:22;5.50;;;3.60;;
23140;SDS011;11739;54.750;9.124;2023-05-10T06:08:47;4.75;;;2.95;;
23140;SDS011;11739;54.750;9.124;2023-05-10T06:11:12;3.88;;;3.08;;
23140;SDS011;11739;54.750;9.124;2023-05-10T06:13:38;3.60;;;3.30;;
23140;SDS011;11739;54.750;9.124;2023-05-10T06:16:03;4.70;;;3.42;;
23140;SDS011;11739;54.750;9.124;2023-05-10T06:18:28;3.42;;;2.90;;
23140;SDS011;11739;54.750;9.124;2023-05-10T06:20:54;4.13;;;3.30;;
23140;SDS011;11739;54.750;9.124;2023-05-10T06:23:19;3.90;;;3.40;;
23140;SDS011;11739;54.750;9.124;2023-05-10T06:25:44;4.35;;;3.10;;
23140;SDS011;11739;54.750;9.124;2023-05-10T06:28:10;4.53;;;3.05;;
23140;SDS011;11739;54.750;9.124;2023-05-10T06:30:35;4.40;;;3.33;;
23140;SDS011;11739;54.750;9.124;2023-05-10T06:33:01;7.15;;;3.17;;
23140;SDS011;11739;54.750;9.124;2023-05-10T06:35:26;4.03;;;3.50;;
23140;SDS011;11739;54.750;9.124;2023-05-10T06:37:53;3.05;;;2.80;;
23140;SDS011;11739;54.750;9.124;2023-05-10T06:40:18;4.30;;;3.28;;
23140;SDS011;11739;54.750;9.124;2023-05-10T06:42:43;4.03;;;3.20;;
23140;SDS011;11739;54.750;9.124;2023-05-10T06:45:09;4.28;;;2.95;;
23140;SDS011;11739;54.750;9.124;2023-05-10T06:47:34;3.90;;;3.55;;
23140;SDS011;11739;54.750;9.124;2023-05-10T06:49:59;4.05;;;3.20;;
23140;SDS011;11739;54.750;9.124;2023-05-10T06:52:25;3.08;;;2.75;;
23140;SDS011;11739;54.750;9.124;2023-05-10T06:54:50;3.25;;;2.95;;
23140;SDS011;11739;54.750;9.124;2023-05-10T06:57:15;3.33;;;3.10;;
23140;SDS011;11739;54.750;9.124;2023-05-10T06:59:41;3.80;;;3.50;;
23140;SDS011;11739;54.750;9.124;2023-05-10T07:02:06;3.25;;;2.95;;
23140;SDS011;11739;54.750;9.124;2023-05-10T07:04:31;3.95;;;3.40;;
23140;SDS011;11739;54.750;9.124;2023-05-10T07:06:57;3.17;;;2.97;;
23140;SDS011;11739;54.750;9.124;2023-05-10T07:09:22;5.85;;;3.45;;
23140;SDS011;11739;54.750;9.124;2023-05-10T07:11:47;4.32;;;3.35;;
23140;SDS011;11739;54.750;9.124;2023-05-10T07:14:12;3.70;;;3.15;;
23140;SDS011;11739;54.750;9.124;2023-05-10T07:16:38;4.13;;;3.47;;
23140;SDS011;11739;54.750;9.124;2023-05-10T07:19:03;3.55;;;2.90;;
23140;SDS011;11739;54.750;9.124;2023-05-10T07:21:28;3.95;;;3.63;;
23140;SDS011;11739;54.750;9.124;2023-05-10T07:23:54;5.15;;;3.67;;
23140;SDS011;11739;54.750;9.124;2023-05-10T07:26:19;4.60;;;3.60;;
23140;SDS011;11739;54.750;9.124;2023-05-10T07:28:44;3.65;;;3.35;;
23140;SDS011;11739;54.750;9.124;2023-05-10T07:31:10;4.05;;;3.70;;
23140;SDS011;11739;54.750;9.124;2023-05-10T07:33:35;3.55;;;2.80;;
23140;SDS011;11739;54.750;9.124;2023-05-10T07:36:00;4.70;;;3.17;;
23140;SDS011;11739;54.750;9.124;2023-05-10T07:38:26;4.35;;;3.92;;
23140;SDS011;11739;54.750;9.124;2023-05-10T07:40:51;5.20;;;3.70;;
23140;SDS011;11739;54.750;9.124;2023-05-10T07:43:16;3.72;;;2.83;;
23140;SDS011;11739;54.750;9.124;2023-05-10T07:45:42;3.42;;;3.13;;
23140;SDS011;11739;54.750;9.124;2023-05-10T07:48:07;4.45;;;3.67;;
23140;SDS011;11739;54.750;9.124;2023-05-10T07:50:32;6.45;;;3.28;;
23140;SDS011;11739;54.750;9.124;2023-05-10T07:52:58;4.72;;;3.90;;
23140;SDS011;11739;54.750;9.124;2023-05-10T07:55:23;4.00;;;3.63;;
23140;SDS011;11739;54.750;9.124;2023-05-10T07:57:48;5.85;;;3.58;;
23140;SDS011;11739;54.750;9.124;2023-05-10T08:00:16;5.13;;;3.58;;
23140;SDS011;11739;54.750;9.124;2023-05-10T08:02:42;4.20;;;3.45;;
23140;SDS011;11739;54.750;9.124;2023-05-10T08:05:08;4.90;;;3.20;;
23140;SDS011;11739;54.750;9.124;2023-05-10T08:07:33;3.40;;;3.10;;
23140;SDS011;11739;54.750;9.124;2023-05-10T08:09:58;3.38;;;3.08;;
23140;SDS011;11739;54.750;9.124;2023-05-10T08:12:24;3.97;;;3.63;;
23140;SDS011;11739;54.750;9.124;2023-05-10T08:14:49;3.97;;;3.53;;
23140;SDS011;11739;54.750;9.124;2023-05-10T08:17:14;6.60;;;3.47;;
23140;SDS011;11739;54.750;9.124;2023-05-10T08:19:40;5.55;;;3.33;;
23140;SDS011;11739;54.750;9.124;2023-05-10T08:22:05;4.25;;;3.55;;
23140;SDS011;11739;54.750;9.124;2023-05-10T08:24:30;5.40;;;3.25;;
23140;SDS011;11739;54.750;9.124;2023-05-10T08:26:55;4.05;;;3.35;;
23140;SDS011;11739;54.750;9.124;2023-05-10T08:29:21;5.93;;;3.35;;
23140;SDS011;11739;54.750;9.124;2023-05-10T08:31:46;3.63;;;3.33;;
23140;SDS011;11739;54.750;9.124;2023-05-10T08:34:11;3.88;;;3.40;;
23140;SDS011;11739;54.750;9.124;2023-05-10T08:36:37;4.03;;;3.60;;
23140;SDS011;11739;54.750;9.124;2023-05-10T08:39:02;3.60;;;3.30;;
23140;SDS011;11739;54.750;9.124;2023-05-10T08:41:27;4.05;;;3.47;;
23140;SDS011;11739;54.750;9.124;2023-05-10T08:43:53;6.65;;;3.65;;
23140;SDS011;11739;54.750;9.124;2023-05-10T08:46:19;6.57;;;3.78;;
23140;SDS011;11739;54.750;9.124;2023-05-10T08:48:46;5.05;;;3.60;;
23140;SDS011;11739;54.750;9.124;2023-05-10T08:51:13;3.40;;;3.10;;
23140;SDS011;11739;54.750;9.124;2023-05-10T08:53:39;3.60;;;3.30;;
23140;SDS011;11739;54.750;9.124;2023-05-10T08:56:04;3.63;;;3.30;;
23140;SDS011;11739;54.750;9.124;2023-05-10T08:58:30;3.72;;;3.42;;
23140;SDS011;11739;54.750;9.124;2023-05-10T09:00:55;5.07;;;3.50;;
23140;SDS011;11739;54.750;9.124;2023-05-10T09:03:21;3.60;;;3.35;;
23140;SDS011;11739;54.750;9.124;2023-05-10T09:05:47;3.63;;;3.33;;
23140;SDS011;11739;54.750;9.124;2023-05-10T09:08:13;4.60;;;3.17;;
23140;SDS011;11739;54.750;9.124;2023-05-10T09:10:39;4.15;;;3.55;;
23140;SDS011;11739;54.750;9.124;2023-05-10T09:13:04;5.07;;;3.58;;
23140;SDS011;11739;54.750;9.124;2023-05-10T09:15:30;3.50;;;3.20;;
23140;SDS011;11739;54.750;9.124;2023-05-10T09:17:55;3.90;;;3.60;;
23140;SDS011;11739;54.750;9.124;2023-05-10T09:20:21;6.20;;;3.47;;
23140;SDS011;11739;54.750;9.124;2023-05-10T09:22:46;3.28;;;3.00;;
23140;SDS011;11739;54.750;9.124;2023-05-10T09:25:14;3.95;;;3.45;;
23140;SDS011;11739;54.750;9.124;2023-05-10T09:27:41;4.28;;;3.88;;
23140;SDS011;11739;54.750;9.124;2023-05-10T09:30:09;4.93;;;3.55;;
23140;SDS011;11739;54.750;9.124;2023-05-10T09:35:10;3.83;;;3.53;;
23140;SDS011;11739;54.750;9.124;2023-05-10T09:37:35;4.22;;;3.60;;
23140;SDS011;11739;54.750;9.124;2023-05-10T09:40:03;3.90;;;3.50;;
23140;SDS011;11739;54.750;9.124;2023-05-10T09:42:29;3.85;;;3.50;;
23140;SDS011;11739;54.750;9.124;2023-05-10T09:44:58;3.70;;;3.38;;
23140;SDS011;11739;54.750;9.124;2023-05-10T09:47:25;6.50;;;3.53;;
23140;SDS011;11739;54.750;9.124;2023-05-10T09:49:50;5.57;;;3.85;;
23140;SDS011;11739;54.750;9.124;2023-05-10T09:52:16;5.53;;;3.47;;
23140;SDS011;11739;54.750;9.124;2023-05-10T09:54:44;3.67;;;3.38;;
23140;SDS011;11739;54.750;9.124;2023-05-10T09:57:18;5.53;;;3.50;;
23140;SDS011;11739;54.750;9.124;2023-05-10T09:59:45;4.97;;;3.72;;
23140;SDS011;11739;54.750;9.124;2023-05-10T10:02:10;5.43;;;3.20;;
23140;SDS011;11739;54.750;9.124;2023-05-10T10:04:38;4.22;;;3.35;;
23140;SDS011;11739;54.750;9.124;2023-05-10T10:07:07;3.67;;;3.38;;
23140;SDS011;11739;54.750;9.124;2023-05-10T10:09:33;3.65;;;3.35;;
23140;SDS011;11739;54.750;9.124;2023-05-10T10:12:02;3.42;;;3.13;;
23140;SDS011;11739;54.750;9.124;2023-05-10T10:14:28;4.30;;;3.90;;
23140;SDS011;11739;54.750;9.124;2023-05-10T10:16:53;4.30;;;3.38;;
23140;SDS011;11739;54.750;9.124;2023-05-10T10:19:19;4.38;;;3.47;;
23140;SDS011;11739;54.750;9.124;2023-05-10T10:21:44;3.55;;;3.25;;
23140;SDS011;11739;54.750;9.124;2023-05-10T10:24:10;4.78;;;3.55;;
23140;SDS011;11739;54.750;9.124;2023-05-10T10:26:35;3.88;;;3.47;;
23140;SDS011;11739;54.750;9.124;2023-05-10T10:29:09;5.05;;;3.40;;
23140;SDS011;11739;54.750;9.124;2023-05-10T10:31:40;3.60;;;3.30;;
23140;SDS011;11739;54.750;9.124;2023-05-10T10:34:10;3.70;;;3.40;;
23140;SDS011;11739;54.750;9.124;2023-05-10T10:36:45;3.60;;;3.30;;
23140;SDS011;11739;54.750;9.124;2023-05-10T10:39:11;4.28;;;3.63;;
23140;SDS011;11739;54.750;9.124;2023-05-10T10:41:40;3.90;;;3.58;;
23140;SDS011;11739;54.750;9.124;2023-05-10T10:52:14;3.85;;;3.55;;
23140;SDS011;11739;54.750;9.124;2023-05-10T10:54:49;4.75;;;3.45;;
23140;SDS011;11739;54.750;9.124;2023-05-10T10:57:17;4.90;;;3.72;;
23140;SDS011;11739;54.750;9.124;2023-05-10T10:59:43;3.97;;;3.58;;
23140;SDS011;11739;54.750;9.124;2023-05-10T11:02:09;4.28;;;3.88;;
23140;SDS011;11739;54.750;9.124;2023-05-10T11:04:44;4.88;;;3.72;;
23140;SDS011;11739;54.750;9.124;2023-05-10T11:07:18;4.30;;;4.00;;
23140;SDS011;11739;54.750;9.124;2023-05-10T11:09:44;4.00;;;3.60;;
23140;SDS011;11739;54.750;9.124;2023-05-10T11:12:09;4.50;;;3.50;;
23140;SDS011;11739;54.750;9.124;2023-05-10T11:14:34;4.82;;;3.50;;
23140;SDS011;11739;54.750;9.124;2023-05-10T11:17:01;3.92;;;3.50;;
23140;SDS011;11739;54.750;9.124;2023-05-10T11:19:29;3.92;;;3.63;;
23140;SDS011;11739;54.750;9.124;2023-05-10T11:24:28;4.43;;;3.67;;
23140;SDS011;11739;54.750;9.124;2023-05-10T11:26:54;3.60;;;3.30;;
23140;SDS011;11739;54.750;9.124;2023-05-10T11:29:19;4.75;;;3.70;;
23140;SDS011;11739;54.750;9.124;2023-05-10T11:31:45;3.90;;;3.60;;
23140;SDS011;11739;54.750;9.124;2023-05-10T11:34:11;4.25;;;3.83;;
23140;SDS011;11739;54.750;9.124;2023-05-10T11:36:36;3.85;;;3.55;;
23140;SDS011;11739;54.750;9.124;2023-05-10T11:39:02;4.20;;;3.70;;
23140;SDS011;11739;54.750;9.124;2023-05-10T11:41:28;4.13;;;3.72;;
23140;SDS011;11739;54.750;9.124;2023-05-10T11:43:54;4.32;;;3.92;;
23140;SDS011;11739;54.750;9.124;2023-05-10T11:46:21;4.90;;;3.65;;
23140;SDS011;11739;54.750;9.124;2023-05-10T11:48:51;4.95;;;3.70;;
23140;SDS011;11739;54.750;9.124;2023-05-10T11:51:21;4.72;;;3.80;;
23140;SDS011;11739;54.750;9.124;2023-05-10T11:53:47;4.20;;;3.78;;
23140;SDS011;11739;54.750;9.124;2023-05-10T11:56:13;4.43;;;4.03;;
23140;SDS011;11739;54.750;9.124;2023-05-10T11:58:39;5.63;;;4.38;;
23140;SDS011;11739;54.750;9.124;2023-05-10T12:01:05;4.65;;;4.25;;
23140;SDS011;11739;54.750;9.124;2023-05-10T12:03:31;4.22;;;3.78;;
23140;SDS011;11739;54.750;9.124;2023-05-10T12:05:57;4.38;;;4.05;;
23140;SDS011;11739;54.750;9.124;2023-05-10T12:08:24;4.80;;;4.35;;
23140;SDS011;11739;54.750;9.124;2023-05-10T12:10:50;5.47;;;4.03;;
23140;SDS011;11739;54.750;9.124;2023-05-10T12:13:16;6.03;;;4.72;;
23140;SDS011;11739;54.750;9.124;2023-05-10T12:15:42;5.38;;;4.35;;
23140;SDS011;11739;54.750;9.124;2023-05-10T12:18:11;4.82;;;4.00;;
23140;SDS011;11739;54.750;9.124;2023-05-10T12:20:37;5.05;;;4.57;;
23140;SDS011;11739;54.750;9.124;2023-05-10T12:23:02;4.10;;;3.70;;
23140;SDS011;11739;54.750;9.124;2023-05-10T12:25:35;6.32;;;4.10;;
23140;SDS011;11739;54.750;9.124;2023-05-10T12:28:04;5.85;;;4.32;;
23140;SDS011;11739;54.750;9.124;2023-05-10T12:30:33;4.57;;;4.10;;
23140;SDS011;11739;54.750;9.124;2023-05-10T12:33:07;4.20;;;3.85;;
23140;SDS011;11739;54.750;9.124;2023-05-10T12:35:38;4.10;;;3.63;;
23140;SDS011;11739;54.750;9.124;2023-05-10T12:38:24;7.18;;;4.63;;
23140;SDS011;11739;54.750;9.124;2023-05-10T12:40:53;4.85;;;4.45;;
23140;SDS011;11739;54.750;9.124;2023-05-10T12:43:18;6.53;;;4.65;;
23140;SDS011;11739;54.750;9.124;2023-05-10T12:45:44;5.63;;;4.30;;
23140;SDS011;11739;54.750;9.124;2023-05-10T12:48:09;5.20;;;4.50;;
23140;SDS011;11739;54.750;9.124;2023-05-10T12:50:34;6.93;;;4.80;;
23140;SDS011;11739;54.750;9.124;2023-05-10T12:53:00;5.32;;;4.93;;
23140;SDS011;11739;54.750;9.124;2023-05-10T12:55:25;4.78;;;4.43;;
23140;SDS011;11739;54.750;9.124;2023-05-10T12:57:50;4.88;;;4.35;;
23140;SDS011;11739;54.750;9.124;2023-05-10T13:00:16;5.07;;;4.50;;
23140;SDS011;11739;54.750;9.124;2023-05-10T13:02:41;4.60;;;4.28;;
23140;SDS011;11739;54.750;9.124;2023-05-10T13:05:06;4.80;;;4.30;;
23140;SDS011;11739;54.750;9.124;2023-05-10T13:07:32;5.20;;;4.80;;
23140;SDS011;11739;54.750;9.124;2023-05-10T13:09:57;4.82;;;4.43;;
23140;SDS011;11739;54.750;9.124;2023-05-10T13:12:22;5.10;;;4.60;;
23140;SDS011;11739;54.750;9.124;2023-05-10T13:14:48;5.25;;;4.75;;
23140;SDS011;11739;54.750;9.124;2023-05-10T13:17:13;5.35;;;4.85;;
23140;SDS011;11739;54.750;9.124;2023-05-10T13:19:38;6.63;;;4.75;;
23140;SDS011;11739;54.750;9.124;2023-05-10T13:22:03;5.45;;;4.65;;
23140;SDS011;11739;54.750;9.124;2023-05-10T13:24:29;5.85;;;5.30;;
23140;SDS011;11739;54.750;9.124;2023-05-10T13:26:54;5.63;;;5.10;;
23140;SDS011;11739;54.750;9.124;2023-05-10T13:29:19;5.80;;;5.25;;
23140;SDS011;11739;54.750;9.124;2023-05-10T13:31:45;4.88;;;4.47;;
23140;SDS011;11739;54.750;9.124;2023-05-10T13:34:10;4.95;;;4.47;;
23140;SDS011;11739;54.750;9.124;2023-05-10T13:36:35;5.13;;;4.63;;
23140;SDS011;11739;54.750;9.124;2023-05-10T13:39:01;5.75;;;5.15;;
23140;SDS011;11739;54.750;9.124;2023-05-10T13:41:26;5.75;;;4.63;;
23140;SDS011;11739;54.750;9.124;2023-05-10T13:43:51;4.63;;;4.25;;
23140;SDS011;11739;54.750;9.124;2023-05-10T13:46:17;5.22;;;4.53;;
23140;SDS011;11739;54.750;9.124;2023-05-10T13:48:42;5.18;;;4.68;;
23140;SDS011;11739;54.750;9.124;2023-05-10T13:51:07;5.28;;;4.78;;
23140;SDS011;11739;54.750;9.124;2023-05-10T13:53:33;9.63;;;4.80;;
23140;SDS011;11739;54.750;9.124;2023-05-10T13:55:58;7.53;;;4.93;;
23140;SDS011;11739;54.750;9.124;2023-05-10T13:58:23;6.10;;;5.00;;
23140;SDS011;11739;54.750;9.124;2023-05-10T14:00:49;6.40;;;4.60;;
23140;SDS011;11739;54.750;9.124;2023-05-10T14:03:14;8.20;;;4.53;;
23140;SDS011;11739;54.750;9.124;2023-05-10T14:05:39;10.10;;;4.50;;
23140;SDS011;11739;54.750;9.124;2023-05-10T14:08:04;6.82;;;4.30;;
23140;SDS011;11739;54.750;9.124;2023-05-10T14:10:30;15.88;;;4.30;;
23140;SDS011;11739;54.750;9.124;2023-05-10T14:12:55;8.50;;;5.15;;
23140;SDS011;11739;54.750;9.124;2023-05-10T14:15:20;10.02;;;6.45;;
23140;SDS011;11739;54.750;9.124;2023-05-10T14:17:46;5.75;;;4.78;;
23140;SDS011;11739;54.750;9.124;2023-05-10T14:20:11;5.35;;;4.82;;
23140;SDS011;11739;54.750;9.124;2023-05-10T14:22:36;4.93;;;4.40;;
23140;SDS011;11739;54.750;9.124;2023-05-10T14:25:02;7.78;;;4.63;;
23140;SDS011;11739;54.750;9.124;2023-05-10T14:27:27;6.90;;;4.60;;
23140;SDS011;11739;54.750;9.124;2023-05-10T14:29:52;7.10;;;4.55;;
23140;SDS011;11739;54.750;9.124;2023-05-10T14:32:18;5.85;;;4.50;;
23140;SDS011;11739;54.750;9.124;2023-05-10T14:34:43;4.80;;;4.40;;
23140;SDS011;11739;54.750;9.124;2023-05-10T14:37:09;4.88;;;4.40;;
23140;SDS011;11739;54.750;9.124;2023-05-10T14:39:35;6.80;;;5.30;;
23140;SDS011;11739;54.750;9.124;2023-05-10T14:42:00;6.18;;;4.85;;
23140;SDS011;11739;54.750;9.124;2023-05-10T14:44:26;6.18;;;4.82;;
23140;SDS011;11739;54.750;9.124;2023-05-10T14:46:51;5.30;;;4.88;;
23140;SDS011;11739;54.750;9.124;2023-05-10T14:49:16;5.72;;;4.80;;
23140;SDS011;11739;54.750;9.124;2023-05-10T14:51:42;6.57;;;4.43;;
23140;SDS011;11739;54.750;9.124;2023-05-10T14:54:07;5.35;;;4.95;;
23140;SDS011;11739;54.750;9.124;2023-05-10T14:56:32;5.30;;;4.80;;
23140;SDS011;11739;54.750;9.124;2023-05-10T14:58:57;5.68;;;5.15;;
23140;SDS011;11739;54.750;9.124;2023-05-10T15:01:23;6.93;;;5.05;;
23140;SDS011;11739;54.750;9.124;2023-05-10T15:03:48;10.25;;;5.22;;
23140;SDS011;11739;54.750;9.124;2023-05-10T15:06:14;8.65;;;5.53;;
23140;SDS011;11739;54.750;9.124;2023-05-10T15:08:40;7.25;;;4.68;;
23140;SDS011;11739;54.750;9.124;2023-05-10T15:11:05;4.90;;;4.50;;